Latest Weather Observations for Collie East

IDW60801

Issued at 11:33 pm WST Wednesday 26 April 2017 (issued every 30 minutes, with the page automatically refreshed every 10 minutes)

About weather observations | Map of weather stations | Latest weather observations for WA | Other Formats
Station Details ID: 009994 Name: COLLIE EAST Lat: -33.36 Lon: 116.17 Height: 200.0 m
Data from the previous 72 hours. | See also: Recent months at Collie East
Date/Time
WST
Temp
°C
App
Temp
°C
Dew
Point
°C
Rel
Hum
%
Delta-T
°C
Wind Press
QNH
hPa
Press
MSL
hPa
Rain since
9am
mm
Dir  Spd
km/h
Gust
km/h
Spd
kts
Gust
kts
26/11:30pm 8.4 7.6 6.4 87 0.9 CALM 0 0 0 0 - - 0.0
26/11:00pm 8.7 7.9 6.3 85 1.1 CALM 0 0 0 0 - - 0.0
26/10:30pm 9.0 8.2 6.4 84 1.2 CALM 0 0 0 0 - - 0.0
26/10:00pm 9.4 8.6 6.7 83 1.3 CALM 0 0 0 0 - - 0.0
26/09:30pm 10.2 9.5 7.1 81 1.5 CALM 0 0 0 0 - - 0.0
26/09:00pm 10.7 10.1 7.2 79 1.7 CALM 0 0 0 0 - - 0.0
26/08:30pm 11.3 10.6 7.0 75 2.1 CALM 0 0 0 0 - - 0.0
26/08:00pm 12.2 11.7 7.7 74 2.2 CALM 0 0 0 0 - - 0.0
26/07:30pm 12.9 12.4 7.8 71 2.5 CALM 0 0 0 0 - - 0.0
26/07:00pm 13.8 13.3 7.8 67 3.0 CALM 0 0 0 0 - - 0.0
26/06:30pm 15.3 14.9 8.3 63 3.6 CALM 0 0 0 0 - - 0.0
26/06:00pm 17.0 16.5 7.9 55 4.7 CALM 0 0 0 0 - - 0.0
26/05:30pm 19.6 19.2 8.3 48 5.9 CALM 0 2 0 1 - - 0.0
26/05:00pm 22.3 21.4 7.7 39 7.7 S 2 7 1 4 - - 0.0
26/04:30pm 22.5 20.5 6.3 35 8.3 S 6 7 3 4 - - 0.0
26/04:00pm 23.3 21.1 6.1 33 8.8 SW 7 11 4 6 - - 0.0
26/03:30pm 23.1 21.0 6.0 33 8.8 SE 6 11 3 6 - - 0.0
26/03:00pm 22.9 21.0 6.6 35 8.4 WSW 6 9 3 5 - - 0.0
26/02:30pm 22.9 21.1 7.0 36 8.3 W 6 9 3 5 - - 0.0
26/02:00pm 22.2 20.2 6.4 36 8.1 SSE 6 11 3 6 - - 0.0
26/01:30pm 21.9 20.6 7.7 40 7.5 S 4 9 2 5 - - 0.0
26/01:00pm 21.6 19.8 7.8 41 7.2 W 7 13 4 7 - - 0.0
26/12:30pm 21.9 20.6 9.8 46 6.6 NNW 7 13 4 7 - - 0.0
26/12:00pm 21.3 19.8 8.6 44 6.8 SE 6 9 3 5 - - 0.0
26/11:30am 20.4 19.6 9.6 50 5.8 SSE 4 9 2 5 - - 0.0
26/11:00am 19.2 18.5 10.2 56 4.9 NNE 4 9 2 5 - - 0.0
26/10:30am 17.7 16.5 10.3 62 4.0 N 7 13 4 7 - - 0.0
26/10:00am 16.6 15.6 10.9 69 3.1 NNE 7 15 4 8 - - 0.0
26/09:30am 13.6 13.6 11.3 86 1.2 S 2 7 1 4 - - 0.0
26/09:00am 11.1 11.2 10.2 94 0.5 CALM 0 0 0 0 - - 0.0
26/08:30am 9.8 9.6 9.0 95 0.4 CALM 0 0 0 0 - - 0.0
26/08:00am 8.4 7.8 7.5 94 0.4 CALM 0 0 0 0 - - 0.0
26/07:30am 7.5 6.7 6.6 94 0.4 CALM 0 0 0 0 - - 0.0
26/07:00am 6.8 5.9 5.9 94 0.4 CALM 0 0 0 0 - - 0.0
26/06:30am 6.6 5.6 5.6 93 0.4 CALM 0 0 0 0 - - 0.0
26/06:00am 6.3 5.2 5.3 93 0.4 CALM 0 0 0 0 - - 0.0
26/05:30am 6.4 5.4 5.4 93 0.4 CALM 0 0 0 0 - - 0.0
26/05:00am 6.6 5.6 5.6 93 0.4 CALM 0 0 0 0 - - 0.0
26/04:30am 6.6 5.6 5.4 92 0.5 CALM 0 0 0 0 - - 0.0
26/04:00am 6.6 5.6 5.4 92 0.5 CALM 0 0 0 0 - - 0.0
26/03:30am 6.3 5.2 5.1 92 0.5 CALM 0 0 0 0 - - 0.0
26/03:00am 5.7 4.4 4.3 91 0.6 CALM 0 0 0 0 - - 0.0
26/02:30am 5.8 4.6 4.4 91 0.6 CALM 0 0 0 0 - - 0.0
26/02:00am 6.2 5.0 4.7 90 0.7 CALM 0 0 0 0 - - 0.0
26/01:30am 6.4 5.3 4.9 90 0.7 CALM 0 0 0 0 - - 0.0
26/01:00am 7.0 6.0 5.5 90 0.7 CALM 0 0 0 0 - - 0.0
26/12:30am 7.3 6.3 5.8 90 0.7 CALM 0 0 0 0 - - 0.0
26/12:00am 7.3 6.3 5.4 88 0.9 CALM 0 0 0 0 - - 0.0
 
Date/Time
WST
Temp
°C
App
Temp
°C
Dew
Point
°C
Rel
Hum
%
Delta-T
°C
Wind Press
QNH
hPa
Press
MSL
hPa
Rain since
9am
mm
Dir  Spd
km/h
Gust
km/h
Spd
kts
Gust
kts
25/11:30pm 7.8 6.9 5.9 88 0.9 CALM 0 0 0 0 - - 0.0
25/11:00pm 8.4 7.6 6.4 87 0.9 CALM 0 0 0 0 - - 0.0
25/10:30pm 8.8 8.0 6.6 86 1.0 CALM 0 0 0 0 - - 0.0
25/10:00pm 9.3 8.5 6.7 84 1.2 CALM 0 0 0 0 - - 0.0
25/09:30pm 9.7 8.9 6.6 81 1.5 CALM 0 0 0 0 - - 0.0
25/09:00pm 10.3 9.7 7.5 83 1.4 CALM 0 0 0 0 - - 0.0
25/08:30pm 10.4 9.6 6.5 77 1.8 CALM 0 0 0 0 - - 0.0
25/08:00pm 11.3 10.7 7.2 76 2.0 CALM 0 0 0 0 - - 0.0
25/07:30pm 11.8 11.2 7.3 74 2.2 CALM 0 0 0 0 - - 0.0
25/07:00pm 12.9 12.3 7.6 70 2.6 CALM 0 0 0 0 - - 0.0
25/06:30pm 14.2 13.7 7.7 65 3.2 CALM 0 0 0 0 - - 0.0
25/06:00pm 16.1 15.6 7.8 58 4.2 CALM 0 0 0 0 - - 0.0
25/05:30pm 19.1 18.7 8.1 49 5.7 CALM 0 0 0 0 - - 0.0
25/05:00pm 21.2 19.6 7.8 42 7.0 SSW 6 9 3 5 - - 0.0
25/04:30pm 21.9 20.7 6.6 37 7.9 S 2 7 1 4 - - 0.0
25/04:00pm 22.1 19.6 6.7 37 7.9 SW 9 17 5 9 - - 0.0
25/03:30pm 21.4 19.5 6.9 39 7.5 SE 6 9 3 5 - - 0.0
25/03:00pm 22.3 20.1 7.7 39 7.7 ESE 9 17 5 9 - - 0.0
25/02:30pm 21.2 19.2 7.1 40 7.3 S 7 15 4 8 - - 0.0
25/02:00pm 21.3 19.4 7.5 41 7.2 S 7 13 4 7 - - 0.0
25/01:30pm 20.9 18.7 7.9 43 6.8 SE 9 15 5 8 - - 0.0
25/01:00pm 21.1 19.7 8.7 45 6.6 WSW 6 11 3 6 - - 0.0
25/12:30pm 20.3 18.1 8.0 45 6.4 SSE 9 19 5 10 - - 0.0
25/12:00pm 19.6 16.7 8.0 47 6.0 ESE 13 28 7 15 - - 0.0
25/11:30am 19.6 18.0 8.9 50 5.7 ESE 7 17 4 9 - - 0.0
25/11:00am 18.8 16.9 9.0 53 5.2 SE 9 15 5 8 - - 0.0
25/10:30am 17.5 15.0 8.4 55 4.7 E 11 19 6 10 - - 0.0
25/10:00am 16.7 15.1 8.7 59 4.1 SE 7 15 4 8 - - 0.0
25/09:30am 14.6 14.3 8.5 67 3.1 CALM 0 0 0 0 - - 0.0
25/09:00am 12.0 11.7 8.7 80 1.7 CALM 0 0 0 0 - - 0.0
25/08:30am 8.7 8.1 7.6 93 0.5 CALM 0 0 0 0 - - 0.0
25/08:00am 6.4 5.4 5.4 93 0.4 CALM 0 0 0 0 - - 0.0
25/07:30am 4.3 2.9 3.3 93 0.4 CALM 0 0 0 0 - - 0.0
25/07:00am 3.7 2.1 2.5 92 0.5 CALM 0 0 0 0 - - 0.0
25/06:30am 4.4 2.9 3.2 92 0.5 CALM 0 0 0 0 - - 0.0
25/06:00am 4.2 2.7 3.0 92 0.5 CALM 0 0 0 0 - - 0.0
25/05:30am 4.6 3.2 3.4 92 0.5 CALM 0 0 0 0 - - 0.0
25/05:00am 5.0 3.6 3.7 91 0.5 CALM 0 0 0 0 - - 0.0
25/04:30am 5.4 4.1 4.1 91 0.6 CALM 0 0 0 0 - - 0.0
25/04:00am 6.4 5.3 5.0 91 0.6 CALM 0 0 0 0 - - 0.0
25/03:30am 6.7 5.6 5.3 91 0.6 CALM 0 0 0 0 - - 0.0
25/03:00am 7.3 6.4 5.9 91 0.6 CALM 0 0 0 0 - - 0.0
25/02:30am 8.0 7.2 6.6 91 0.7 CALM 0 0 0 0 - - 0.0
25/02:00am 8.0 7.2 6.6 91 0.7 CALM 0 0 0 0 - - 0.0
25/01:30am 7.8 7.0 6.3 90 0.7 CALM 0 0 0 0 - - 0.0
25/01:00am 8.3 7.5 6.6 89 0.8 CALM 0 0 0 0 - - 0.0
25/12:30am 8.7 8.0 7.0 89 0.8 CALM 0 0 0 0 - - 0.0
25/12:00am 9.3 8.7 7.4 88 0.9 CALM 0 0 0 0 - - 0.0
 
Date/Time
WST
Temp
°C
App
Temp
°C
Dew
Point
°C
Rel
Hum
%
Delta-T
°C
Wind Press
QNH
hPa
Press
MSL
hPa
Rain since
9am
mm
Dir  Spd
km/h
Gust
km/h
Spd
kts
Gust
kts
24/11:30pm 9.8 9.2 7.4 85 1.2 CALM 0 0 0 0 - - 0.0
24/11:00pm 10.3 9.8 7.7 84 1.3 CALM 0 0 0 0 - - 0.0
24/10:30pm 11.5 11.1 8.2 80 1.6 CALM 0 0 0 0 - - 0.0
24/10:00pm 13.0 11.9 8.5 74 2.3 SE 4 7 2 4 - - 0.0
24/09:30pm 14.0 12.5 9.0 72 2.6 SE 7 13 4 7 - - 0.0
24/09:00pm 14.6 12.9 9.8 73 2.5 SSE 9 20 5 11 - - 0.0
24/08:30pm 15.1 13.5 10.1 72 2.6 SSE 9 20 5 11 - - 0.0
24/08:00pm 15.6 14.0 10.2 70 2.9 S 9 13 5 7 - - 0.0
24/07:30pm 15.9 14.3 10.2 69 3.0 SSE 9 20 5 11 - - 0.0
24/07:00pm 16.4 15.3 10.0 66 3.4 S 6 9 3 5 - - 0.0
24/06:30pm 17.3 16.2 10.0 62 3.9 S 6 13 3 7 - - 0.0
24/06:00pm 18.2 16.9 10.1 59 4.4 SSE 7 15 4 8 - - 0.0
24/05:30pm 19.5 18.6 9.1 51 5.5 S 4 9 2 5 - - 0.0
24/05:00pm 20.6 19.3 9.8 50 5.8 S 7 15 4 8 - - 0.0
24/04:30pm 21.6 19.9 9.8 47 6.4 SSE 9 20 5 11 - - 0.0
24/04:00pm 21.6 19.9 9.8 47 6.4 S 9 15 5 8 - - 0.0
24/03:30pm 22.3 21.0 9.8 45 6.8 SSW 7 17 4 9 - - 0.0
24/03:00pm 22.4 20.9 10.5 47 6.6 S 9 20 5 11 - - 0.0
24/02:30pm 23.5 21.4 9.9 42 7.5 S 11 19 6 10 - - 0.0
24/02:00pm 23.1 21.6 9.1 41 7.6 SSW 7 15 4 8 - - 0.0
24/01:30pm 22.7 21.6 10.8 47 6.6 ESE 7 11 4 6 - - 0.0
24/01:00pm 22.5 21.8 11.9 51 6.0 ESE 7 15 4 8 - - 0.0
24/12:30pm 21.5 20.6 11.5 53 5.6 S 7 13 4 7 - - 0.0
24/12:00pm 20.9 19.3 11.5 55 5.3 E 11 15 6 8 - - 0.0
24/11:30am 20.5 19.8 12.0 58 4.8 SSE 7 13 4 7 - - 0.0
24/11:00am 19.7 18.9 11.7 60 4.5 ESE 7 15 4 8 - - 0.0
24/10:30am 18.6 17.8 11.7 64 3.8 SE 7 13 4 7 - - 0.0
24/10:00am 17.4 16.2 11.7 69 3.1 SE 9 15 5 8 - - 0.0
24/09:30am 17.2 16.1 11.9 71 2.9 SE 9 17 5 9 - - 0.0
24/09:00am 16.0 14.8 11.6 75 2.4 ESE 9 17 5 9 - - 0.0
24/08:30am 14.9 13.9 11.1 78 2.0 ESE 7 13 4 7 - - 0.0
24/08:00am 14.7 14.1 11.7 82 1.6 ESE 6 11 3 6 - - 0.0
24/07:30am 14.0 13.1 11.2 83 1.5 ESE 7 11 4 6 - - 0.0
24/07:00am 13.8 13.1 11.3 85 1.3 ESE 6 9 3 5 - - 0.0
24/06:30am 13.7 13.3 11.2 85 1.3 ESE 4 7 2 4 - - 0.0
24/06:00am 13.6 12.7 11.5 87 1.1 ESE 7 13 4 7 - - 0.0
24/05:30am 13.3 12.7 11.7 90 0.9 E 6 11 3 6 - - 0.0
24/05:00am 12.9 12.2 11.5 91 0.7 E 6 9 3 5 - - 0.0
24/04:30am 13.0 12.7 11.6 91 0.8 SE 4 9 2 5 - - 0.0
24/04:00am 13.2 12.7 12.1 93 0.6 ESE 6 7 3 4 - - 0.0
24/03:30am 11.7 11.9 10.6 93 0.6 CALM 0 6 0 3 - - 0.0
24/03:00am 11.4 11.2 10.3 93 0.6 ESE 2 6 1 3 - - 0.0
24/02:30am 10.5 10.4 9.3 92 0.6 CALM 0 0 0 0 - - 0.0
24/02:00am 11.4 11.1 10.1 92 0.7 ESE 2 6 1 3 - - 0.0
24/01:30am 11.2 10.8 9.8 91 0.7 SE 2 6 1 3 - - 0.0
24/01:00am 11.6 11.3 10.2 91 0.7 SE 2 7 1 4 - - 0.0
24/12:30am 12.0 12.2 10.4 90 0.8 CALM 0 6 0 3 - - 0.0
24/12:00am 12.5 12.0 10.7 89 0.9 SSE 4 7 2 4 - - 0.0

Other Formats:

Comma delimited format used in spreadsheet applications
http://www.bom.gov.au/fwo/IDW60801/IDW60801.95621.axf

JavaScript Object Notation format (JSON) in row-major order
http://www.bom.gov.au/fwo/IDW60801/IDW60801.95621.json